Hauptseite
METAR-TAF:

METAR-TAF

Flughäfen :

Flughafen Frankfurt-Hahn

Hahn, Deutschland

Breite: 49-57N, Länge: 007-16E, Höhe: 491 m

Beobachtung

Neuester Wetterbericht von vor 54 Minuten, um 06:50 UTC
Wind 6 kt aus West
Temperatur 12°C
Luftfeuchtigkeit 71%
Luftdruck 1022 hPa
Sichtweite 10 km oder mehr
keine Wolken unter 1500 m und keine Kumulonimbus oder Gewitterwolken

METAR: EDFH 140650Z 27006KT CAVOK 12/07 Q1022

Zeit: 09:44 (07:44 UTC)

Prognose

Neuester Wetterbericht von vor 2 Stunden und 44 Minuten, um 05:00 UTC
Gültige Prognose vom 14 um 06 UTC bis 15 um 06 UTC
Wind 9 kt aus West
Sichtweite 10 km oder mehr
Aufgelockert bewölkt in der Höhe von 3500 ft
Übergehend zu
vom 14 um 18 UTC bis 14 um 21 UTC
Wind 4 kt aus West/Nordwest

TAF: EDFH 140500Z 1406/1506 26009KT 9999 SCT035 BECMG 1418/1421 30004KT

Wetterbeobachtungen und Prognosen von mehr als 4000 Flughäfen (METAR und TAF Bericht).

Die verfügbaren Stationen werden durch gelbe und rote Markierungen auf der Karte dargestellt.

Führen Sie die Maus auf sie, um den Namen der Station zu sehen.

Darauf klicken, um die Beobachtung von Wetterbeobachtungen und Prognosen zu sehen.

Um die Karte zu ändern : klicken Sie auf den grünen Tasten mit einem schwarzen Kreuz Zum Vergrößern, auf den grünen Button mit einem Gedankenstrich zu verkleinern, oder auf die grünen Pfeile für benachbarte Karten.


METAR-TAF: